Terminal Aerodrome Forecast
Issued by NWS Charleston, WV

Current Version | Previous Version | Text Only | Print | Product List | Glossary Off
Versions: 1 2 3 4 5 6 7 8 9 10 11 12 13 14 15 16 17 18 19 20 21 22

723
FTUS41 KRLX 302338
TAFBKW
TAF
KBKW 302338Z 0100/0124 24007KT P6SM OVC060
     FM010200 28008KT 4SM -SHRA OVC025
     FM010400 29008KT P6SM BKN050
     FM011200 28008KT P6SM BKN025
     FM011800 28010G16KT P6SM OVC035=

USA.gov is the U.S. government's official web portal to all federal, state and local government web resources and services.